createdAt,value
2022-11-28T00:00:37.697Z,17.00
2022-11-28T00:01:37.697Z,16.30
2022-11-28T00:02:37.818Z,15.40
2022-11-28T00:03:37.757Z,18.00
2022-11-28T00:04:37.766Z,17.80
2022-11-28T00:05:39.166Z,17.00
2022-11-28T00:06:37.635Z,17.80
2022-11-28T00:07:37.786Z,15.90
2022-11-28T00:08:37.623Z,18.40
2022-11-28T00:09:37.641Z,17.30
2022-11-28T00:10:37.750Z,18.30
2022-11-28T00:11:37.647Z,16.30
2022-11-28T00:12:37.613Z,18.60
2022-11-28T00:13:37.655Z,17.80
2022-11-28T00:14:37.711Z,17.10
2022-11-28T00:15:37.672Z,16.10
2022-11-28T00:16:37.626Z,18.60
2022-11-28T00:17:37.608Z,16.10
2022-11-28T00:18:37.581Z,17.90
2022-11-28T00:19:37.610Z,18.60
2022-11-28T00:20:37.590Z,17.70
2022-11-28T00:21:37.590Z,16.90
2022-11-28T00:22:37.598Z,17.10
2022-11-28T00:23:43.519Z,16.60
2022-11-28T00:24:44.010Z,17.20
2022-11-28T00:25:43.615Z,16.80
2022-11-28T00:26:43.608Z,17.80
2022-11-28T00:27:43.620Z,17.00
2022-11-28T00:28:49.476Z,18.20
2022-11-28T00:29:49.587Z,17.10
2022-11-28T00:30:49.551Z,17.00
2022-11-28T00:31:49.598Z,18.90
2022-11-28T00:32:49.541Z,17.40
2022-11-28T00:33:49.545Z,18.10
2022-11-28T00:34:49.529Z,17.80
2022-11-28T00:35:49.535Z,16.40
2022-11-28T00:36:49.511Z,18.60
2022-11-28T00:37:49.521Z,17.80
2022-11-28T00:38:49.660Z,17.20
2022-11-28T00:39:49.512Z,16.90
2022-11-28T00:40:49.503Z,17.20
2022-11-28T00:41:49.525Z,17.10
2022-11-28T00:42:49.459Z,16.30
2022-11-28T00:43:49.468Z,17.60
2022-11-28T00:44:49.601Z,18.20
2022-11-28T00:45:49.690Z,17.70
2022-11-28T00:46:49.430Z,17.20
2022-11-28T00:47:49.455Z,17.20
2022-11-28T00:48:49.417Z,16.80
2022-11-28T00:49:49.421Z,16.60
2022-11-28T00:50:49.517Z,16.50
2022-11-28T00:51:49.429Z,17.30
2022-11-28T00:52:49.400Z,15.70
2022-11-28T00:53:49.427Z,16.80
2022-11-28T00:54:49.396Z,19.00
2022-11-28T00:55:49.411Z,18.00
2022-11-28T00:56:49.519Z,16.70
2022-11-28T00:57:49.410Z,16.70
2022-11-28T00:58:49.365Z,18.30
2022-11-28T00:59:55.244Z,18.60
2022-11-28T01:00:55.397Z,18.30
2022-11-28T01:01:55.553Z,17.70
2022-11-28T01:03:00.288Z,18.20
2022-11-28T01:04:00.416Z,17.40
2022-11-28T01:05:00.342Z,18.60
2022-11-28T01:06:00.363Z,18.00
2022-11-28T01:07:00.460Z,18.70
2022-11-28T01:08:00.354Z,20.60
2022-11-28T01:09:00.334Z,19.10
2022-11-28T01:10:00.369Z,18.30
2022-11-28T01:11:00.331Z,18.80
2022-11-28T01:12:00.325Z,19.70
2022-11-28T01:13:00.415Z,19.60
2022-11-28T01:14:00.283Z,21.50
2022-11-28T01:15:00.281Z,20.60
2022-11-28T01:16:00.377Z,19.10
2022-11-28T01:17:00.233Z,20.00
2022-11-28T01:18:00.292Z,21.00
2022-11-28T01:19:00.254Z,22.30
2022-11-28T01:20:00.288Z,23.10
2022-11-28T01:21:00.275Z,23.40
2022-11-28T01:22:00.255Z,22.50
2022-11-28T01:23:00.210Z,23.40
2022-11-28T01:24:00.237Z,23.30
2022-11-28T01:25:00.337Z,24.40
2022-11-28T01:26:00.658Z,24.70
2022-11-28T01:27:00.209Z,24.70
2022-11-28T01:28:00.235Z,23.30
2022-11-28T01:29:00.193Z,27.30
2022-11-28T01:30:00.229Z,24.00
2022-11-28T01:31:00.282Z,24.70
2022-11-28T01:32:00.242Z,25.00
2022-11-28T01:33:00.134Z,25.50
2022-11-28T01:34:00.138Z,24.70
2022-11-28T01:35:00.118Z,25.20
2022-11-28T01:36:00.099Z,25.70
2022-11-28T01:37:00.193Z,26.80
2022-11-28T01:38:00.088Z,27.60
2022-11-28T01:39:00.048Z,26.10
2022-11-28T01:40:00.091Z,25.80
2022-11-28T01:41:00.056Z,27.90
2022-11-28T01:42:00.093Z,26.70
2022-11-28T01:43:00.113Z,30.30
2022-11-28T01:44:00.103Z,27.60
2022-11-28T01:45:00.068Z,27.20
2022-11-28T01:46:00.086Z,27.90
2022-11-28T01:47:00.203Z,29.10
2022-11-28T01:48:00.109Z,27.60
2022-11-28T01:49:00.070Z,29.00
2022-11-28T01:50:00.062Z,26.10
2022-11-28T01:51:00.130Z,27.50
2022-11-28T01:52:00.046Z,28.20
2022-11-28T01:53:00.029Z,28.50
2022-11-28T01:54:00.022Z,27.60
2022-11-28T01:55:00.154Z,29.60
2022-11-28T01:56:00.012Z,29.00
2022-11-28T01:56:59.978Z,30.20
2022-11-28T01:58:00.006Z,31.50
2022-11-28T01:58:59.971Z,28.30
2022-11-28T01:59:59.978Z,26.70
2022-11-28T02:01:00.054Z,30.60
2022-11-28T02:02:00.164Z,29.00
2022-11-28T02:03:00.436Z,31.10
2022-11-28T02:03:59.962Z,28.50
2022-11-28T02:04:59.926Z,30.10
2022-11-28T02:05:59.936Z,28.50
2022-11-28T02:06:59.930Z,29.40
2022-11-28T02:07:59.957Z,31.50
2022-11-28T02:08:59.885Z,27.50
2022-11-28T02:09:59.891Z,31.30
2022-11-28T02:10:59.863Z,29.60
2022-11-28T02:11:59.887Z,27.80
2022-11-28T02:12:59.971Z,29.30
2022-11-28T02:13:59.858Z,26.90
2022-11-28T02:14:59.813Z,27.80
2022-11-28T02:15:59.830Z,25.60
2022-11-28T02:16:59.777Z,25.50
2022-11-28T02:17:59.780Z,26.80
2022-11-28T02:18:59.828Z,26.30
2022-11-28T02:19:59.739Z,27.00
2022-11-28T02:20:59.722Z,25.70
2022-11-28T02:21:59.728Z,30.60
2022-11-28T02:22:59.710Z,28.20
2022-11-28T02:23:59.728Z,27.00
2022-11-28T02:25:00.075Z,24.70
2022-11-28T02:25:59.690Z,26.40
2022-11-28T02:26:59.661Z,26.10
2022-11-28T02:27:59.661Z,25.10
2022-11-28T02:28:59.631Z,25.70
2022-11-28T02:29:59.650Z,25.20
2022-11-28T02:30:59.778Z,23.50
2022-11-28T02:31:59.627Z,25.50
2022-11-28T02:32:59.573Z,25.60
2022-11-28T02:33:59.590Z,24.50
2022-11-28T02:34:59.722Z,24.90
2022-11-28T02:35:59.578Z,24.80
2022-11-28T02:36:59.553Z,23.70
2022-11-28T02:37:59.552Z,27.30
2022-11-28T02:38:59.515Z,23.10
2022-11-28T02:39:59.528Z,24.80
2022-11-28T02:40:59.508Z,23.50
2022-11-28T02:41:59.522Z,22.10
2022-11-28T02:42:59.600Z,24.60
2022-11-28T02:44:04.060Z,22.30
2022-11-28T02:44:59.487Z,24.70
2022-11-28T02:45:59.512Z,23.30
2022-11-28T02:46:59.617Z,24.30
2022-11-28T02:47:59.481Z,22.80
2022-11-28T02:48:59.598Z,22.80
2022-11-28T02:49:59.451Z,23.10
2022-11-28T02:50:59.454Z,22.30
2022-11-28T02:51:59.469Z,22.50
2022-11-28T02:52:59.440Z,23.10
2022-11-28T02:53:59.455Z,22.50
2022-11-28T02:54:59.439Z,21.30
2022-11-28T02:55:59.411Z,21.40
2022-11-28T02:56:59.424Z,22.70
2022-11-28T02:57:59.375Z,22.40
2022-11-28T02:58:59.347Z,22.70
2022-11-28T02:59:59.344Z,22.30
2022-11-28T03:00:59.383Z,21.30
2022-11-28T03:01:59.354Z,21.70
2022-11-28T03:02:59.299Z,22.30
2022-11-28T03:03:59.300Z,20.50
2022-11-28T03:04:59.264Z,19.60
2022-11-28T03:05:59.281Z,20.10
2022-11-28T03:06:59.284Z,22.10
2022-11-28T03:07:59.527Z,21.00
2022-11-28T03:08:59.230Z,21.50
2022-11-28T03:09:59.247Z,21.10
2022-11-28T03:10:59.223Z,21.00
2022-11-28T03:11:59.218Z,19.30
2022-11-28T03:12:59.237Z,19.70
2022-11-28T03:13:59.205Z,19.90
2022-11-28T03:14:59.189Z,21.50
2022-11-28T03:15:59.257Z,21.30
2022-11-28T03:16:59.185Z,20.30
2022-11-28T03:17:59.186Z,19.90
2022-11-28T03:18:59.189Z,20.30
2022-11-28T03:19:59.171Z,21.20
2022-11-28T03:20:59.162Z,20.80
2022-11-28T03:21:59.171Z,21.10
2022-11-28T03:22:59.141Z,20.10
2022-11-28T03:23:59.138Z,20.90
2022-11-28T03:24:59.279Z,22.30
2022-11-28T03:25:59.153Z,22.10
2022-11-28T03:26:59.125Z,21.50
2022-11-28T03:27:59.124Z,22.00
2022-11-28T03:28:59.108Z,20.70
2022-11-28T03:29:59.174Z,21.70
2022-11-28T03:30:59.109Z,20.90
2022-11-28T03:31:59.214Z,19.80
2022-11-28T03:32:59.052Z,20.20
2022-11-28T03:33:59.097Z,20.50
2022-11-28T03:34:59.077Z,20.60
2022-11-28T03:35:59.060Z,20.30
2022-11-28T03:36:59.039Z,20.60
2022-11-28T03:37:59.051Z,19.90
2022-11-28T03:38:59.020Z,20.90
2022-11-28T03:39:59.145Z,20.10
2022-11-28T03:40:59.100Z,19.90
2022-11-28T03:41:59.041Z,19.40
2022-11-28T03:42:59.037Z,18.30
2022-11-28T03:43:59.028Z,18.00
2022-11-28T03:44:59.038Z,19.20
2022-11-28T03:45:59.044Z,19.40
2022-11-28T03:46:59.083Z,20.00
2022-11-28T03:49:05.043Z,18.40
2022-11-28T03:50:05.004Z,17.80
2022-11-28T03:51:04.988Z,15.80
2022-11-28T03:52:04.966Z,18.40
2022-11-28T03:53:04.927Z,17.30
2022-11-28T03:54:04.941Z,18.40
2022-11-28T03:55:05.014Z,18.30
2022-11-28T03:56:04.956Z,17.20
2022-11-28T03:57:04.907Z,17.80
2022-11-28T03:58:04.911Z,17.80
2022-11-28T03:59:04.882Z,18.00
2022-11-28T04:00:04.908Z,17.10
2022-11-28T04:01:05.011Z,17.60
2022-11-28T04:02:05.013Z,16.20
2022-11-28T04:03:05.472Z,16.60
2022-11-28T04:04:09.793Z,16.90
2022-11-28T04:05:14.778Z,16.20
2022-11-28T04:06:15.020Z,17.50
2022-11-28T04:07:14.954Z,17.20
2022-11-28T04:08:14.885Z,15.80
2022-11-28T04:09:14.879Z,15.40
2022-11-28T04:10:14.867Z,15.20
2022-11-28T04:11:14.833Z,15.90
2022-11-28T04:12:14.866Z,15.90
2022-11-28T04:13:14.820Z,16.70
2022-11-28T04:14:14.838Z,15.70
2022-11-28T04:17:08.713Z,16.30
2022-11-28T04:18:08.993Z,15.40
2022-11-28T04:19:13.696Z,15.70
2022-11-28T04:20:13.773Z,15.90
2022-11-28T04:21:13.762Z,14.70
2022-11-28T04:22:13.734Z,14.60
2022-11-28T04:23:13.800Z,15.40
2022-11-28T04:24:13.731Z,14.90
2022-11-28T04:25:19.619Z,16.20
2022-11-28T04:26:19.714Z,15.50
2022-11-28T04:27:19.683Z,15.00
2022-11-28T04:28:19.806Z,16.30
2022-11-28T04:29:19.673Z,15.70
2022-11-28T04:30:19.681Z,14.70
2022-11-28T04:31:19.749Z,16.60
2022-11-28T04:32:19.670Z,16.10
2022-11-28T04:33:19.674Z,16.00
2022-11-28T04:34:19.674Z,14.70
2022-11-28T04:35:19.620Z,16.60
2022-11-28T04:36:19.637Z,15.80
2022-11-28T04:37:19.643Z,15.90
2022-11-28T04:39:23.537Z,15.20
2022-11-28T04:40:23.628Z,16.20
2022-11-28T04:41:23.594Z,16.20
2022-11-28T04:42:23.649Z,16.10
2022-11-28T04:43:23.753Z,16.70
2022-11-28T04:44:23.626Z,15.10
2022-11-28T04:45:23.579Z,15.90
2022-11-28T04:46:23.665Z,19.40
2022-11-28T04:47:23.583Z,17.70
2022-11-28T04:48:23.595Z,17.60
2022-11-28T04:49:23.622Z,17.00
2022-11-28T04:50:23.691Z,17.30
2022-11-28T04:51:23.572Z,16.40
2022-11-28T04:52:23.566Z,17.20
2022-11-28T04:53:23.552Z,18.20
2022-11-28T04:54:23.580Z,18.20
2022-11-28T04:55:23.547Z,17.80
2022-11-28T04:56:23.583Z,18.20
2022-11-28T04:57:23.532Z,17.90
2022-11-28T04:58:23.564Z,18.80
2022-11-28T04:59:23.558Z,19.50
2022-11-28T05:00:23.545Z,19.20
2022-11-28T05:01:23.588Z,19.30
2022-11-28T05:02:23.765Z,19.10
2022-11-28T05:03:23.525Z,19.70
2022-11-28T05:04:23.528Z,19.30
2022-11-28T05:05:23.543Z,22.00
2022-11-28T05:06:23.529Z,20.90
2022-11-28T05:07:23.560Z,20.70
2022-11-28T05:08:23.919Z,22.30
2022-11-28T05:09:23.530Z,22.00
2022-11-28T05:10:23.532Z,19.40
2022-11-28T05:11:23.498Z,20.50
2022-11-28T05:12:23.526Z,19.40
2022-11-28T05:13:23.500Z,19.00
2022-11-28T05:14:23.558Z,18.80
2022-11-28T05:15:23.509Z,18.40
2022-11-28T05:16:29.599Z,19.60
2022-11-28T05:17:29.499Z,20.80
2022-11-28T05:18:29.468Z,19.50
2022-11-28T05:19:29.619Z,21.10
2022-11-28T05:20:29.469Z,18.90
2022-11-28T05:21:29.478Z,19.20
2022-11-28T05:22:29.451Z,18.90
2022-11-28T05:23:33.350Z,20.90
2022-11-28T05:24:33.474Z,18.80
2022-11-28T05:25:33.439Z,17.50
2022-11-28T05:26:39.380Z,18.60
2022-11-28T05:27:39.474Z,17.60
2022-11-28T05:28:39.458Z,18.30
2022-11-28T05:29:39.887Z,17.40
2022-11-28T05:30:39.496Z,18.30
2022-11-28T05:31:39.563Z,16.80
2022-11-28T05:32:39.462Z,16.90
2022-11-28T05:33:39.463Z,17.00
2022-11-28T05:34:39.597Z,18.30
2022-11-28T05:35:44.373Z,17.90
2022-11-28T05:36:44.464Z,18.80
2022-11-28T05:37:44.418Z,18.50
2022-11-28T05:38:44.458Z,17.30
2022-11-28T05:39:44.817Z,18.00
2022-11-28T05:40:44.613Z,18.50
2022-11-28T05:41:44.463Z,17.30
2022-11-28T05:42:44.518Z,17.00
2022-11-28T05:43:44.462Z,15.90
2022-11-28T05:44:44.473Z,17.10
2022-11-28T05:45:44.542Z,16.60
2022-11-28T05:46:44.609Z,16.70
2022-11-28T05:47:44.496Z,16.00
2022-11-28T05:48:44.463Z,16.60
2022-11-28T05:49:44.701Z,16.50
2022-11-28T05:50:44.485Z,15.50
2022-11-28T05:51:44.438Z,15.30
2022-11-28T05:52:44.555Z,15.60
2022-11-28T05:53:44.444Z,15.30
2022-11-28T05:54:44.456Z,15.30
2022-11-28T05:55:44.454Z,13.80
2022-11-28T05:56:44.464Z,14.40
2022-11-28T05:57:44.580Z,15.00
2022-11-28T05:58:44.481Z,15.20
2022-11-28T05:59:44.747Z,13.30
2022-11-28T06:00:44.468Z,13.80
2022-11-28T06:01:44.505Z,14.30
2022-11-28T06:02:44.541Z,14.50
2022-11-28T06:03:44.467Z,15.10
2022-11-28T06:04:44.793Z,15.30
2022-11-28T06:05:44.553Z,15.30
2022-11-28T06:06:44.468Z,15.00
2022-11-28T06:07:44.501Z,16.50
2022-11-28T06:08:44.491Z,14.50
2022-11-28T06:09:44.705Z,15.50
2022-11-28T06:10:44.869Z,15.30
2022-11-28T06:11:44.471Z,15.00
2022-11-28T06:12:44.484Z,14.60
2022-11-28T06:13:44.479Z,14.30
2022-11-28T06:14:44.516Z,13.90
2022-11-28T06:15:44.516Z,13.80
2022-11-28T06:16:44.734Z,13.10
2022-11-28T06:17:44.503Z,13.40
2022-11-28T06:18:44.613Z,13.80
2022-11-28T06:19:45.007Z,13.30
2022-11-28T06:20:44.496Z,13.10
2022-11-28T06:21:44.463Z,11.20
2022-11-28T06:22:44.498Z,13.20
2022-11-28T06:23:44.464Z,13.10
2022-11-28T06:24:44.487Z,14.40
2022-11-28T06:25:44.443Z,13.20
2022-11-28T06:26:44.459Z,12.30
2022-11-28T06:27:44.440Z,11.90
2022-11-28T06:28:49.350Z,12.90
2022-11-28T06:29:54.321Z,12.30
2022-11-28T06:30:54.459Z,13.00
2022-11-28T06:31:54.868Z,13.20
2022-11-28T06:32:54.446Z,12.90
2022-11-28T06:35:00.362Z,12.30
2022-11-28T06:36:04.331Z,11.80
2022-11-28T06:37:04.444Z,12.10
2022-11-28T06:38:04.403Z,11.80
2022-11-28T06:39:04.593Z,12.70
2022-11-28T06:40:04.524Z,12.60
2022-11-28T06:41:10.290Z,12.10
2022-11-28T06:42:10.452Z,12.00
2022-11-28T06:43:10.398Z,13.00
2022-11-28T06:44:10.425Z,12.50
2022-11-28T06:45:10.403Z,12.30
2022-11-28T06:46:16.768Z,13.00
2022-11-28T06:47:16.392Z,13.80
2022-11-28T06:48:16.366Z,12.40
2022-11-28T06:49:16.518Z,12.80
2022-11-28T06:50:16.384Z,12.20
2022-11-28T06:51:16.375Z,12.50
2022-11-28T06:52:16.347Z,12.90
2022-11-28T06:53:16.377Z,12.40
2022-11-28T06:54:16.350Z,13.20
2022-11-28T06:55:16.374Z,12.70
2022-11-28T06:56:16.360Z,12.50
2022-11-28T06:57:16.778Z,12.20
2022-11-28T06:58:16.362Z,12.90
2022-11-28T06:59:16.375Z,12.50
2022-11-28T07:00:16.420Z,13.00
2022-11-28T07:01:16.520Z,12.40
2022-11-28T07:02:16.413Z,13.20
2022-11-28T07:03:16.375Z,13.00
2022-11-28T07:04:16.339Z,12.60
2022-11-28T07:05:16.358Z,13.10
2022-11-28T07:06:16.324Z,14.00
2022-11-28T07:07:16.769Z,13.40
2022-11-28T07:08:16.373Z,12.90
2022-11-28T07:09:16.310Z,13.50
2022-11-28T07:10:16.290Z,13.60
2022-11-28T07:11:21.376Z,13.80
2022-11-28T07:12:26.286Z,14.30
2022-11-28T07:13:26.332Z,14.30
2022-11-28T07:14:26.308Z,14.20
2022-11-28T07:15:26.310Z,13.50
2022-11-28T07:16:26.395Z,14.80
2022-11-28T07:17:26.282Z,13.70
2022-11-28T07:18:26.379Z,13.80
2022-11-28T07:19:26.302Z,13.90
2022-11-28T07:20:26.256Z,14.50
2022-11-28T07:21:26.318Z,14.60
2022-11-28T07:22:26.248Z,15.00
2022-11-28T07:23:26.244Z,16.00
2022-11-28T07:24:26.278Z,14.90
2022-11-28T07:25:26.246Z,15.20
2022-11-28T07:26:26.207Z,15.50
2022-11-28T07:27:26.220Z,14.30
2022-11-28T07:28:26.186Z,15.90
2022-11-28T07:29:26.204Z,15.20
2022-11-28T07:30:26.272Z,15.80
2022-11-28T07:31:26.208Z,16.10
2022-11-28T07:32:26.326Z,15.30
2022-11-28T07:33:26.186Z,15.40
2022-11-28T07:34:26.162Z,15.30
2022-11-28T07:35:26.182Z,16.90
2022-11-28T07:36:26.181Z,14.40
2022-11-28T07:37:31.088Z,15.00
2022-11-28T07:38:31.192Z,14.40
2022-11-28T07:39:31.149Z,15.20
2022-11-28T07:40:31.151Z,14.70
2022-11-28T07:41:31.120Z,14.90
2022-11-28T07:42:31.333Z,15.00
2022-11-28T07:43:31.126Z,15.90
2022-11-28T07:44:31.151Z,14.00
2022-11-28T07:45:53.520Z,15.50
2022-11-28T07:46:31.277Z,16.00
2022-11-28T07:47:31.297Z,16.70
2022-11-28T07:48:31.110Z,16.50
2022-11-28T07:49:31.062Z,18.60
2022-11-28T07:50:31.108Z,17.10
2022-11-28T07:51:31.064Z,16.30
2022-11-28T07:52:31.063Z,15.70
2022-11-28T07:53:31.142Z,17.10
2022-11-28T07:54:31.070Z,15.90
2022-11-28T07:55:31.013Z,16.50
2022-11-28T07:56:56.759Z,16.40
2022-11-28T07:57:35.044Z,18.90
2022-11-28T07:58:35.015Z,16.10
2022-11-28T07:59:35.004Z,17.00
2022-11-28T08:00:34.987Z,16.50
2022-11-28T08:01:35.059Z,16.50
2022-11-28T08:02:35.038Z,18.30
2022-11-28T08:03:39.903Z,16.10
2022-11-28T08:04:45.940Z,16.70
2022-11-28T08:05:39.962Z,18.40
2022-11-28T08:06:39.989Z,19.20
2022-11-28T08:07:39.999Z,17.50
2022-11-28T08:08:40.072Z,18.40
2022-11-28T08:09:40.168Z,19.80
2022-11-28T08:10:39.919Z,19.50
2022-11-28T08:11:39.894Z,18.00
2022-11-28T08:12:39.878Z,19.90
2022-11-28T08:13:39.856Z,22.30
2022-11-28T08:14:40.500Z,19.70
2022-11-28T08:15:39.831Z,19.90
2022-11-28T08:16:39.880Z,19.30
2022-11-28T08:17:39.820Z,18.80
2022-11-28T08:18:39.848Z,18.40
2022-11-28T08:19:39.803Z,19.80
2022-11-28T08:20:39.959Z,19.50
2022-11-28T08:21:39.815Z,20.50
2022-11-28T08:22:39.806Z,18.90
2022-11-28T08:23:39.771Z,19.70
2022-11-28T08:24:39.791Z,20.30
2022-11-28T08:25:39.784Z,19.70
2022-11-28T08:26:39.884Z,20.60
2022-11-28T08:27:39.749Z,19.30
2022-11-28T08:28:39.782Z,22.00
2022-11-28T08:29:39.786Z,20.80
2022-11-28T08:30:39.769Z,21.60
2022-11-28T08:31:39.723Z,19.70
2022-11-28T08:32:39.839Z,19.80
2022-11-28T08:33:39.714Z,22.60
2022-11-28T08:34:39.718Z,20.80
2022-11-28T08:35:39.694Z,21.80
2022-11-28T08:36:39.840Z,21.50
2022-11-28T08:37:39.662Z,23.50
2022-11-28T08:38:39.798Z,21.60
2022-11-28T08:39:39.649Z,22.70
2022-11-28T08:42:33.572Z,24.10
2022-11-28T08:43:33.612Z,21.90
2022-11-28T08:44:33.765Z,20.80
2022-11-28T08:45:33.639Z,20.00
2022-11-28T08:46:33.593Z,21.60
2022-11-28T08:47:33.584Z,21.10
2022-11-28T08:48:33.579Z,21.50
2022-11-28T08:49:33.574Z,23.10
2022-11-28T08:50:33.710Z,21.60
2022-11-28T08:51:33.559Z,24.10
2022-11-28T08:52:33.560Z,23.90
2022-11-28T08:53:33.543Z,21.30
2022-11-28T08:54:33.556Z,21.00
2022-11-28T08:55:36.596Z,22.30
2022-11-28T08:56:39.441Z,19.90
2022-11-28T08:57:39.566Z,20.60
2022-11-28T08:58:39.516Z,19.60
2022-11-28T08:59:44.913Z,20.90
2022-11-28T09:00:44.530Z,19.80
2022-11-28T09:01:44.719Z,21.40
2022-11-28T09:02:50.411Z,21.20
2022-11-28T09:03:50.596Z,20.90
2022-11-28T09:04:50.485Z,22.20
2022-11-28T09:05:50.481Z,21.70
2022-11-28T09:06:50.575Z,21.00
2022-11-28T09:07:50.599Z,20.80
2022-11-28T09:08:50.418Z,20.60
2022-11-28T09:09:50.468Z,19.80
2022-11-28T09:10:50.406Z,20.60
2022-11-28T09:11:50.450Z,20.80
2022-11-28T09:12:50.480Z,19.10
2022-11-28T09:13:50.411Z,20.40
2022-11-28T09:14:50.363Z,19.30
2022-11-28T09:15:55.276Z,19.70
2022-11-28T09:17:00.483Z,20.50
2022-11-28T09:18:01.458Z,20.60
2022-11-28T09:19:01.362Z,19.90
2022-11-28T09:20:01.366Z,19.40
2022-11-28T09:21:07.226Z,21.00
2022-11-28T09:22:07.353Z,20.90
2022-11-28T09:23:07.424Z,20.70
2022-11-28T09:24:07.353Z,19.60
2022-11-28T09:25:07.318Z,19.80
2022-11-28T09:26:07.324Z,20.00
2022-11-28T09:27:07.286Z,20.50
2022-11-28T09:28:07.322Z,18.30
2022-11-28T09:29:07.381Z,19.50
2022-11-28T09:30:07.293Z,19.60
2022-11-28T09:31:07.309Z,17.80
2022-11-28T09:32:07.290Z,17.80
2022-11-28T09:33:07.292Z,18.00
2022-11-28T09:34:07.279Z,18.10
2022-11-28T09:35:07.367Z,17.70
2022-11-28T09:36:07.289Z,18.70
2022-11-28T09:37:07.273Z,19.90
2022-11-28T09:38:07.262Z,17.80
2022-11-28T09:39:07.386Z,16.80
2022-11-28T09:40:13.963Z,16.30
2022-11-28T09:41:07.292Z,18.40
2022-11-28T09:42:07.301Z,18.90
2022-11-28T09:43:07.246Z,17.90
2022-11-28T09:44:07.288Z,19.90
2022-11-28T09:45:07.250Z,18.50
2022-11-28T09:46:07.367Z,17.90
2022-11-28T09:47:07.383Z,17.90
2022-11-28T09:48:07.268Z,16.10
2022-11-28T09:49:07.245Z,15.60
2022-11-28T09:50:07.283Z,17.90
2022-11-28T09:51:07.260Z,17.40
2022-11-28T09:52:07.358Z,16.20
2022-11-28T09:53:07.365Z,16.60
2022-11-28T09:54:07.271Z,16.20
2022-11-28T09:55:07.280Z,18.20
2022-11-28T09:56:07.269Z,16.40
2022-11-28T09:57:07.264Z,15.80
2022-11-28T09:58:07.271Z,16.10
2022-11-28T09:59:07.352Z,16.00
2022-11-28T10:00:07.279Z,16.10
2022-11-28T10:02:11.314Z,15.30
2022-11-28T10:03:11.324Z,15.90
2022-11-28T10:04:11.525Z,16.00
2022-11-28T10:05:11.441Z,15.60
2022-11-28T10:06:11.248Z,17.00
2022-11-28T10:07:16.225Z,16.40
2022-11-28T10:08:22.195Z,14.70
2022-11-28T10:09:22.384Z,14.90
2022-11-28T10:10:22.245Z,15.00
2022-11-28T10:11:22.298Z,14.50
2022-11-28T10:12:22.360Z,14.40
2022-11-28T10:13:32.651Z,14.20
2022-11-28T10:14:27.386Z,14.60
2022-11-28T10:15:27.229Z,16.00
2022-11-28T10:16:32.227Z,14.40
2022-11-28T10:17:36.142Z,14.30
2022-11-28T10:18:36.287Z,14.10
2022-11-28T10:19:53.713Z,13.20
2022-11-28T10:20:36.263Z,14.60
2022-11-28T10:21:36.237Z,12.80
2022-11-28T10:22:36.294Z,13.80
2022-11-28T10:23:36.252Z,14.20
2022-11-28T10:24:36.367Z,14.00
2022-11-28T10:25:36.263Z,13.80
2022-11-28T10:26:36.289Z,14.60
2022-11-28T10:27:36.253Z,13.70
2022-11-28T10:28:42.181Z,14.20
2022-11-28T10:29:48.323Z,13.50
2022-11-28T10:30:48.356Z,13.10
2022-11-28T10:31:48.265Z,14.40
2022-11-28T10:32:48.437Z,13.20
2022-11-28T10:33:48.276Z,13.60
2022-11-28T10:34:48.302Z,13.50
2022-11-28T10:35:48.382Z,12.90
2022-11-28T10:36:48.302Z,12.80
2022-11-28T10:37:48.290Z,13.40
2022-11-28T10:38:48.309Z,12.80
2022-11-28T10:39:48.289Z,12.70
2022-11-28T10:40:48.325Z,12.80
2022-11-28T10:41:48.451Z,13.10
2022-11-28T10:42:48.332Z,13.70
2022-11-28T10:43:48.427Z,12.40
2022-11-28T10:44:48.330Z,13.30
2022-11-28T10:45:48.408Z,13.30
2022-11-28T10:46:48.330Z,13.00
2022-11-28T10:47:48.325Z,13.00
2022-11-28T10:48:48.319Z,13.20
2022-11-28T10:49:48.318Z,13.50
2022-11-28T10:50:48.309Z,12.90
2022-11-28T10:51:48.285Z,12.70
2022-11-28T10:52:48.286Z,12.30
2022-11-28T10:53:48.273Z,12.40
2022-11-28T10:54:48.304Z,13.10
2022-11-28T10:55:48.250Z,12.50
2022-11-28T10:56:48.629Z,12.30
2022-11-28T10:57:48.253Z,12.90
2022-11-28T10:58:48.261Z,12.20
2022-11-28T10:59:48.333Z,12.90
2022-11-28T11:00:48.254Z,12.40
2022-11-28T11:01:50.377Z,14.80
2022-11-28T11:02:48.249Z,13.90
2022-11-28T11:03:48.232Z,14.50
2022-11-28T11:04:48.304Z,14.10
2022-11-28T11:05:48.358Z,14.30
2022-11-28T11:07:07.529Z,15.20
2022-11-28T11:07:48.309Z,15.70
2022-11-28T11:08:48.209Z,15.60
2022-11-28T11:09:48.205Z,16.00
2022-11-28T11:10:48.244Z,15.30
2022-11-28T11:11:48.344Z,16.40
2022-11-28T11:12:48.248Z,17.70
2022-11-28T11:13:48.225Z,16.40
2022-11-28T11:14:48.231Z,17.20
2022-11-28T11:15:48.312Z,16.60
2022-11-28T11:16:48.385Z,17.20
2022-11-28T11:17:48.246Z,17.10
2022-11-28T11:18:48.262Z,15.70
2022-11-28T11:19:48.653Z,16.30
2022-11-28T11:20:48.254Z,17.40
2022-11-28T11:21:48.219Z,17.40
2022-11-28T11:22:48.553Z,16.30
2022-11-28T11:23:53.157Z,18.50
2022-11-28T11:24:53.263Z,18.30
2022-11-28T11:25:53.245Z,19.30
2022-11-28T11:26:53.392Z,18.70
2022-11-28T11:27:53.392Z,18.70
2022-11-28T11:28:53.268Z,18.00
2022-11-28T11:29:53.672Z,18.40
2022-11-28T11:30:59.259Z,17.60
2022-11-28T11:32:04.206Z,18.20
2022-11-28T11:33:04.342Z,18.00
2022-11-28T11:34:04.261Z,20.90
2022-11-28T11:35:04.277Z,19.10
2022-11-28T11:36:04.276Z,20.90
2022-11-28T11:37:04.416Z,21.30
2022-11-28T11:38:04.300Z,20.60
2022-11-28T11:39:04.439Z,21.00
2022-11-28T11:40:04.311Z,21.90
2022-11-28T11:41:04.325Z,22.20
2022-11-28T11:42:04.307Z,21.00
2022-11-28T11:43:04.355Z,21.50
2022-11-28T11:44:04.344Z,23.20
2022-11-28T11:45:04.518Z,23.90
2022-11-28T11:46:04.362Z,24.50
2022-11-28T11:47:04.359Z,22.70
2022-11-28T11:48:04.343Z,22.90
2022-11-28T11:49:04.367Z,22.20
2022-11-28T11:50:04.347Z,21.70
2022-11-28T11:51:04.482Z,24.50
2022-11-28T11:52:04.346Z,22.90
2022-11-28T11:53:04.367Z,24.90
2022-11-28T11:54:04.373Z,23.90
2022-11-28T11:55:04.384Z,23.40
2022-11-28T11:56:04.435Z,25.90
2022-11-28T11:57:32.074Z,24.50
2022-11-28T11:58:09.524Z,24.70
2022-11-28T11:59:09.438Z,25.30
2022-11-28T12:00:09.441Z,25.40
2022-11-28T12:01:09.424Z,27.00
2022-11-28T12:02:09.510Z,25.50
2022-11-28T12:03:09.779Z,28.80
2022-11-28T12:04:37.102Z,31.70
2022-11-28T12:05:09.449Z,28.90
2022-11-28T12:06:14.668Z,30.10
2022-11-28T12:07:09.468Z,29.00
2022-11-28T12:08:09.505Z,28.40
2022-11-28T12:09:09.644Z,31.50
2022-11-28T12:10:13.471Z,28.70
2022-11-28T12:11:13.549Z,32.70
2022-11-28T12:12:13.535Z,29.70
2022-11-28T12:13:13.591Z,31.70
2022-11-28T12:14:13.572Z,31.60
2022-11-28T12:15:13.610Z,30.20
2022-11-28T12:16:13.648Z,32.80
2022-11-28T12:17:40.509Z,30.80
2022-11-28T12:19:13.822Z,32.20
2022-11-28T12:20:18.528Z,31.20
2022-11-28T12:21:18.623Z,30.30
2022-11-28T12:22:24.506Z,33.50
2022-11-28T12:23:24.651Z,32.70
2022-11-28T12:24:24.710Z,33.50
2022-11-28T12:25:24.646Z,32.70
2022-11-28T12:26:24.728Z,32.20
2022-11-28T12:27:24.667Z,30.40
2022-11-28T12:28:24.618Z,32.00
2022-11-28T12:29:24.816Z,32.30
2022-11-28T12:30:24.758Z,32.90
2022-11-28T12:31:30.972Z,33.00
2022-11-28T12:32:30.728Z,31.60
2022-11-28T12:33:30.692Z,31.40
2022-11-28T12:34:30.727Z,33.20
2022-11-28T12:35:31.640Z,29.70
2022-11-28T12:36:36.618Z,31.10
2022-11-28T12:38:02.739Z,33.00
2022-11-28T12:38:36.710Z,36.60
2022-11-28T12:39:36.868Z,30.60
2022-11-28T12:40:36.851Z,33.00
2022-11-28T12:41:36.745Z,32.50
2022-11-28T12:42:36.743Z,32.60
2022-11-28T12:43:36.761Z,32.90
2022-11-28T12:44:36.774Z,35.20
2022-11-28T12:45:36.802Z,35.40
2022-11-28T12:46:36.873Z,34.20
2022-11-28T12:47:36.815Z,37.40
2022-11-28T12:48:36.799Z,35.20
2022-11-28T12:49:36.830Z,33.40
2022-11-28T12:50:36.863Z,34.10
2022-11-28T12:51:36.953Z,35.20
2022-11-28T12:52:36.855Z,32.90
2022-11-28T12:53:36.871Z,31.30
2022-11-28T12:54:36.891Z,33.00
2022-11-28T12:55:36.904Z,37.20
2022-11-28T12:56:36.879Z,31.50
2022-11-28T12:57:41.997Z,34.60
2022-11-28T12:58:41.915Z,31.70
2022-11-28T12:59:42.503Z,33.10
2022-11-28T13:00:47.940Z,34.00
2022-11-28T13:01:52.977Z,33.90
2022-11-28T13:02:53.131Z,32.30
2022-11-28T13:03:52.934Z,32.80
2022-11-28T13:04:52.969Z,34.60
2022-11-28T13:05:52.944Z,34.50